createdAt,value
2023-10-02T00:02:41.043Z,79.39
2023-10-02T00:05:10.513Z,79.25
2023-10-02T00:07:44.353Z,79.53
2023-10-02T00:10:13.893Z,79.41
2023-10-02T00:12:44.383Z,79.46
2023-10-02T00:15:14.667Z,79.47
2023-10-02T00:17:46.734Z,79.62
2023-10-02T00:20:21.313Z,79.56
2023-10-02T00:22:52.380Z,79.67
2023-10-02T00:25:24.566Z,79.77
2023-10-02T00:27:56.510Z,79.76
2023-10-02T00:30:32.572Z,79.92
2023-10-02T00:33:04.555Z,79.80
2023-10-02T00:35:51.526Z,79.82
2023-10-02T00:38:20.312Z,79.77
2023-10-02T00:40:49.335Z,79.91
2023-10-02T00:43:36.240Z,80.01
2023-10-02T00:46:05.815Z,79.74
2023-10-02T00:48:35.632Z,79.75
2023-10-02T00:51:08.324Z,79.84
2023-10-02T00:54:02.204Z,79.73
2023-10-02T00:56:31.139Z,79.80
2023-10-02T00:59:03.055Z,79.83
2023-10-02T01:01:34.436Z,79.67
2023-10-02T01:04:26.086Z,79.58
2023-10-02T01:07:07.261Z,79.72
2023-10-02T01:09:36.870Z,79.99
2023-10-02T01:12:12.596Z,79.90
2023-10-02T01:14:53.149Z,79.83
2023-10-02T01:17:23.637Z,79.92
2023-10-02T01:19:57.795Z,80.12
2023-10-02T01:22:29.546Z,79.93
2023-10-02T01:25:18.466Z,79.89
2023-10-02T01:27:52.795Z,79.93
2023-10-02T01:30:26.244Z,79.85
2023-10-02T01:33:13.999Z,79.81
2023-10-02T01:35:50.912Z,80.01
2023-10-02T01:38:36.866Z,80.24
2023-10-02T01:41:11.899Z,80.22
2023-10-02T01:43:46.343Z,80.39
2023-10-02T01:46:20.819Z,80.33
2023-10-02T01:48:52.772Z,80.63
2023-10-02T01:51:23.630Z,80.29
2023-10-02T01:53:58.591Z,80.59
2023-10-02T01:56:29.554Z,80.67
2023-10-02T01:59:13.700Z,80.71
2023-10-02T02:02:09.303Z,80.90
2023-10-02T02:04:38.476Z,80.92
2023-10-02T02:07:10.594Z,80.91
2023-10-02T02:09:39.695Z,80.55
2023-10-02T02:12:12.650Z,80.59
2023-10-02T02:14:53.964Z,81.06
2023-10-02T02:17:29.230Z,80.75
2023-10-02T02:20:12.902Z,81.46
2023-10-02T02:22:44.267Z,81.19
2023-10-02T02:25:14.310Z,81.05
2023-10-02T02:27:47.829Z,81.00
2023-10-02T02:30:21.291Z,80.83
2023-10-02T02:32:56.516Z,81.14
2023-10-02T02:35:25.350Z,80.84
2023-10-02T02:37:54.117Z,81.15
2023-10-02T02:40:27.452Z,81.32
2023-10-02T02:42:58.640Z,81.38
2023-10-02T02:45:31.586Z,81.92
2023-10-02T02:48:06.766Z,81.64
2023-10-02T02:50:45.675Z,81.93
2023-10-02T02:53:24.525Z,82.08
2023-10-02T02:56:17.221Z,82.09
2023-10-02T02:58:53.853Z,81.77
2023-10-02T03:01:26.985Z,82.09
2023-10-02T03:03:57.968Z,82.04
2023-10-02T03:06:27.077Z,82.23
2023-10-02T03:08:59.829Z,82.28
2023-10-02T03:11:31.521Z,82.40
2023-10-02T03:14:21.265Z,82.42
2023-10-02T03:16:53.384Z,82.54
2023-10-02T03:19:24.615Z,82.42
2023-10-02T03:22:04.642Z,82.36
2023-10-02T03:24:35.595Z,82.67
2023-10-02T03:27:04.570Z,82.67
2023-10-02T03:29:34.023Z,83.03
2023-10-02T03:32:03.382Z,82.79
2023-10-02T03:34:34.369Z,83.03
2023-10-02T03:37:13.831Z,83.17
2023-10-02T03:40:02.059Z,83.32
2023-10-02T03:42:33.603Z,82.93
2023-10-02T03:45:09.230Z,83.00
2023-10-02T03:47:38.173Z,83.26
2023-10-02T03:50:14.770Z,83.31
2023-10-02T03:52:47.657Z,83.30
2023-10-02T03:55:20.283Z,83.69
2023-10-02T03:57:49.516Z,83.55
2023-10-02T04:00:29.500Z,83.92
2023-10-02T04:03:01.429Z,83.92
2023-10-02T04:05:34.848Z,83.41
2023-10-02T04:08:16.848Z,84.12
2023-10-02T04:11:00.330Z,83.44
2023-10-02T04:13:35.593Z,83.71
2023-10-02T04:16:24.275Z,84.09
2023-10-02T04:19:04.733Z,83.32
2023-10-02T04:21:35.829Z,83.69
2023-10-02T04:24:11.333Z,84.07
2023-10-02T04:26:43.671Z,83.91
2023-10-02T04:29:17.180Z,84.49
2023-10-02T04:32:06.032Z,83.66
2023-10-02T04:34:38.654Z,84.34
2023-10-02T04:37:22.272Z,84.35
2023-10-02T04:40:00.753Z,84.14
2023-10-02T04:42:52.530Z,83.67
2023-10-02T04:45:27.590Z,83.94
2023-10-02T04:47:57.016Z,85.45
2023-10-02T04:50:26.337Z,83.66
2023-10-02T04:53:21.939Z,84.17
2023-10-02T04:56:09.239Z,83.92
2023-10-02T04:58:58.558Z,84.06
2023-10-02T05:01:36.684Z,84.20
2023-10-02T05:04:06.462Z,83.69
2023-10-02T05:06:46.374Z,84.06
2023-10-02T05:09:19.994Z,83.82
2023-10-02T05:12:01.028Z,83.56
2023-10-02T05:14:36.232Z,83.27
2023-10-02T05:17:24.442Z,83.63
2023-10-02T05:20:02.981Z,83.15
2023-10-02T05:22:34.033Z,82.99
2023-10-02T05:25:06.475Z,82.62
2023-10-02T05:27:40.229Z,82.37
2023-10-02T05:30:14.650Z,82.21
2023-10-02T05:32:43.709Z,81.29
2023-10-02T05:35:16.179Z,81.91
2023-10-02T05:37:50.792Z,81.29
2023-10-02T05:40:21.170Z,80.63
2023-10-02T05:43:01.651Z,79.89
2023-10-02T05:45:46.910Z,79.63
2023-10-02T05:48:38.188Z,79.31
2023-10-02T05:51:17.513Z,79.52
2023-10-02T05:53:55.359Z,78.90
2023-10-02T05:56:27.384Z,78.47
2023-10-02T05:58:57.529Z,77.85
2023-10-02T06:01:28.601Z,77.88
2023-10-02T06:04:01.524Z,77.42
2023-10-02T06:06:38.090Z,77.43
2023-10-02T06:09:15.932Z,76.65
2023-10-02T06:12:07.402Z,76.51
2023-10-02T06:14:41.436Z,75.95
2023-10-02T06:17:16.774Z,75.75
2023-10-02T06:19:46.116Z,75.84
2023-10-02T06:22:15.592Z,75.12
2023-10-02T06:24:47.810Z,74.94
2023-10-02T06:27:17.538Z,74.83
2023-10-02T06:29:47.371Z,74.66
2023-10-02T06:32:21.529Z,74.38
2023-10-02T06:34:52.899Z,73.79
2023-10-02T06:37:37.860Z,73.23
2023-10-02T06:40:16.491Z,73.32
2023-10-02T06:42:53.053Z,72.67
2023-10-02T06:45:27.637Z,72.37
2023-10-02T06:47:58.657Z,71.92
2023-10-02T06:50:32.940Z,71.93
2023-10-02T06:53:01.932Z,71.54
2023-10-02T06:55:34.268Z,71.45
2023-10-02T06:58:04.412Z,71.18
2023-10-02T07:00:56.780Z,70.09
2023-10-02T07:03:26.948Z,69.96
2023-10-02T07:05:55.982Z,69.82
2023-10-02T07:08:28.717Z,69.24
2023-10-02T07:11:00.979Z,68.51
2023-10-02T07:13:29.920Z,68.58
2023-10-02T07:15:59.017Z,68.43
2023-10-02T07:18:40.678Z,66.96
2023-10-02T07:21:09.357Z,67.87
2023-10-02T07:23:39.936Z,67.04
2023-10-02T07:26:40.397Z,65.57
2023-10-02T07:29:09.575Z,66.72
2023-10-02T07:31:38.804Z,66.62
2023-10-02T07:34:10.012Z,66.01
2023-10-02T07:36:46.741Z,65.93
2023-10-02T07:39:34.498Z,65.69
2023-10-02T07:42:09.772Z,65.44
2023-10-02T07:44:43.548Z,64.96
2023-10-02T07:47:13.280Z,64.16
2023-10-02T07:49:42.649Z,64.46
2023-10-02T07:52:13.731Z,64.21
2023-10-02T07:54:50.448Z,63.78
2023-10-02T07:57:20.037Z,63.39
2023-10-02T07:59:49.425Z,63.20
2023-10-02T08:02:25.221Z,63.28
2023-10-02T08:04:54.771Z,62.88
2023-10-02T08:07:32.227Z,62.06
2023-10-02T08:10:10.092Z,62.30
2023-10-02T08:12:39.050Z,61.80
2023-10-02T08:15:34.780Z,61.88
2023-10-02T08:18:06.214Z,61.24
2023-10-02T08:20:39.849Z,60.64
2023-10-02T08:23:25.669Z,60.01
2023-10-02T08:28:36.186Z,61.08
2023-10-02T08:31:05.232Z,60.43
2023-10-02T08:33:39.326Z,60.52
2023-10-02T08:36:24.166Z,60.26
2023-10-02T08:41:31.064Z,59.90
2023-10-02T08:44:02.576Z,60.19
2023-10-02T08:46:33.068Z,59.76
2023-10-02T08:49:05.706Z,59.92
2023-10-02T08:51:40.423Z,59.23
2023-10-02T08:54:09.181Z,57.61
2023-10-02T08:56:48.308Z,59.44
2023-10-02T08:59:28.648Z,58.68
2023-10-02T09:02:13.647Z,58.29
2023-10-02T09:04:55.810Z,58.46
2023-10-02T09:07:47.415Z,58.64
2023-10-02T09:10:27.575Z,58.19
2023-10-02T09:13:16.743Z,57.18
2023-10-02T09:15:57.875Z,57.81
2023-10-02T09:18:58.151Z,57.68
2023-10-02T09:21:41.003Z,57.36
2023-10-02T09:24:29.553Z,57.82
2023-10-02T09:27:18.252Z,58.88
2023-10-02T09:29:47.831Z,58.32
2023-10-02T09:32:27.796Z,58.92
2023-10-02T09:35:28.743Z,58.40
2023-10-02T09:38:07.463Z,58.53
2023-10-02T09:40:58.611Z,58.58
2023-10-02T09:43:39.480Z,57.95
2023-10-02T09:46:24.698Z,58.37
2023-10-02T09:48:53.667Z,58.16
2023-10-02T09:51:40.690Z,57.31
2023-10-02T09:54:15.218Z,57.77
2023-10-02T09:57:07.707Z,56.80
2023-10-02T09:59:49.319Z,57.61
2023-10-02T10:02:20.687Z,58.04
2023-10-02T10:05:04.532Z,57.06
2023-10-02T10:07:54.077Z,56.60
2023-10-02T10:10:49.101Z,57.43
2023-10-02T10:13:48.239Z,56.25
2023-10-02T10:16:25.362Z,56.23
2023-10-02T10:19:18.266Z,56.65
2023-10-02T10:22:06.419Z,57.12
2023-10-02T10:24:58.323Z,56.84
2023-10-02T10:27:45.643Z,56.54
2023-10-02T10:30:27.020Z,56.35
2023-10-02T10:33:25.737Z,56.19
2023-10-02T10:35:57.411Z,57.57
2023-10-02T10:38:51.452Z,57.37
2023-10-02T10:41:37.207Z,56.30
2023-10-02T10:44:15.146Z,56.71
2023-10-02T10:46:54.260Z,56.22
2023-10-02T10:49:28.128Z,56.98
2023-10-02T10:52:22.630Z,57.16
2023-10-02T10:54:56.879Z,57.08
2023-10-02T10:57:31.450Z,57.15
2023-10-02T11:00:26.908Z,56.03
2023-10-02T11:03:17.146Z,55.99
2023-10-02T11:05:49.446Z,56.95
2023-10-02T11:08:27.743Z,56.39
2023-10-02T11:11:08.079Z,56.26
2023-10-02T11:14:03.488Z,56.55
2023-10-02T11:16:38.432Z,56.60
2023-10-02T11:19:27.348Z,56.58
2023-10-02T11:22:24.559Z,56.18
2023-10-02T11:24:57.062Z,57.10
2023-10-02T11:27:30.993Z,56.81
2023-10-02T11:30:09.196Z,56.53
2023-10-02T11:33:00.772Z,56.33
2023-10-02T11:35:45.480Z,56.41
2023-10-02T11:38:20.181Z,57.18
2023-10-02T11:40:49.529Z,56.99
2023-10-02T11:43:22.227Z,57.27
2023-10-02T11:45:56.910Z,57.46
2023-10-02T11:48:30.359Z,57.65
2023-10-02T11:50:59.731Z,58.07
2023-10-02T11:53:32.030Z,58.15
2023-10-02T11:56:04.266Z,58.15
2023-10-02T11:58:36.451Z,58.42
2023-10-02T12:01:11.943Z,58.49
2023-10-02T12:03:42.029Z,58.70
2023-10-02T12:06:21.289Z,58.95
2023-10-02T12:09:03.437Z,59.42
2023-10-02T12:11:36.166Z,59.33
2023-10-02T12:14:05.337Z,59.78
2023-10-02T12:16:39.382Z,60.54
2023-10-02T12:19:10.750Z,60.12
2023-10-02T12:21:48.498Z,60.21
2023-10-02T12:24:23.867Z,60.94
2023-10-02T12:26:54.202Z,60.54
2023-10-02T12:29:26.801Z,61.08
2023-10-02T12:32:02.727Z,61.23
2023-10-02T12:34:35.622Z,61.73
2023-10-02T12:37:06.129Z,62.62
2023-10-02T12:39:35.371Z,61.96
2023-10-02T12:42:09.788Z,62.92
2023-10-02T12:44:42.929Z,62.77
2023-10-02T12:47:12.311Z,62.84
2023-10-02T12:49:47.268Z,62.53
2023-10-02T12:52:16.930Z,63.19
2023-10-02T12:54:46.896Z,63.36
2023-10-02T12:57:21.891Z,63.57
2023-10-02T12:59:53.499Z,63.61
2023-10-02T13:02:22.442Z,64.12
2023-10-02T13:05:06.003Z,64.23
2023-10-02T13:07:35.693Z,64.02
2023-10-02T13:10:06.770Z,64.20
2023-10-02T13:12:36.846Z,64.79
2023-10-02T13:15:08.224Z,64.48
2023-10-02T13:17:44.525Z,64.83
2023-10-02T13:20:22.883Z,64.66
2023-10-02T13:22:56.018Z,64.89
2023-10-02T13:25:31.053Z,64.71
2023-10-02T13:28:01.254Z,65.22
2023-10-02T13:30:33.298Z,65.64
2023-10-02T13:33:02.855Z,65.83
2023-10-02T13:35:42.034Z,66.30
2023-10-02T13:38:12.369Z,65.96
2023-10-02T13:40:44.557Z,66.26
2023-10-02T13:43:34.155Z,66.51
2023-10-02T13:46:10.474Z,66.43
2023-10-02T13:48:42.865Z,66.28
2023-10-02T13:51:23.788Z,66.73
2023-10-02T13:53:55.835Z,66.72
2023-10-02T13:56:35.076Z,66.75
2023-10-02T13:59:07.062Z,67.41
2023-10-02T14:01:39.064Z,66.94
2023-10-02T14:04:08.847Z,67.54
2023-10-02T14:06:41.000Z,67.75
2023-10-02T14:09:12.366Z,67.23
2023-10-02T14:11:45.002Z,67.62
2023-10-02T14:14:15.380Z,68.19
2023-10-02T14:16:52.857Z,68.34
2023-10-02T14:19:27.287Z,68.11
2023-10-02T14:21:57.100Z,68.58
2023-10-02T14:24:26.582Z,68.41
2023-10-02T14:26:55.993Z,68.76
2023-10-02T14:29:25.381Z,68.88
2023-10-02T14:31:58.337Z,68.91
2023-10-02T14:34:32.209Z,68.58
2023-10-02T14:37:24.714Z,69.19
2023-10-02T14:39:56.363Z,68.66
2023-10-02T14:42:28.478Z,69.19
2023-10-02T14:45:01.187Z,68.79
2023-10-02T14:47:33.302Z,69.55
2023-10-02T14:50:08.719Z,68.84
2023-10-02T14:52:37.883Z,69.46
2023-10-02T14:55:10.782Z,69.06
2023-10-02T14:57:40.046Z,69.59
2023-10-02T15:00:13.039Z,69.46
2023-10-02T15:02:47.663Z,70.12
2023-10-02T15:05:20.643Z,69.45
2023-10-02T15:07:58.433Z,69.57
2023-10-02T15:10:39.419Z,69.99
2023-10-02T15:13:08.792Z,70.21
2023-10-02T15:15:41.499Z,69.78
2023-10-02T15:18:16.144Z,70.00
2023-10-02T15:20:45.396Z,70.09
2023-10-02T15:23:15.462Z,70.62
2023-10-02T15:25:52.823Z,70.58
2023-10-02T15:28:28.496Z,70.35
2023-10-02T15:31:23.866Z,70.97
2023-10-02T15:33:58.378Z,70.40
2023-10-02T15:36:33.991Z,70.83
2023-10-02T15:39:13.286Z,71.12
2023-10-02T15:41:53.023Z,71.25
2023-10-02T15:44:23.349Z,70.96
2023-10-02T15:46:55.516Z,71.46
2023-10-02T15:49:27.386Z,71.07
2023-10-02T15:51:57.259Z,70.86
2023-10-02T15:54:27.615Z,71.41
2023-10-02T15:57:04.329Z,71.27
2023-10-02T15:59:33.848Z,71.54
2023-10-02T16:02:07.390Z,71.25
2023-10-02T16:04:37.286Z,71.50
2023-10-02T16:07:07.775Z,71.66
2023-10-02T16:09:42.799Z,71.58
2023-10-02T16:12:29.907Z,71.66
2023-10-02T16:14:59.665Z,71.79
2023-10-02T16:17:32.392Z,72.17
2023-10-02T16:20:08.264Z,71.93
2023-10-02T16:22:39.380Z,72.08
2023-10-02T16:25:14.192Z,72.23
2023-10-02T16:28:06.170Z,72.52
2023-10-02T16:30:38.160Z,71.99
2023-10-02T16:33:19.983Z,72.32
2023-10-02T16:36:05.292Z,72.38
2023-10-02T16:38:36.032Z,72.37
2023-10-02T16:41:12.494Z,72.41
2023-10-02T16:43:41.864Z,72.40
2023-10-02T16:46:13.908Z,72.61
2023-10-02T16:48:43.838Z,72.62
2023-10-02T16:51:19.657Z,72.97
2023-10-02T16:53:49.578Z,72.76
2023-10-02T16:56:20.958Z,73.10
2023-10-02T16:58:53.070Z,73.40
2023-10-02T17:01:25.096Z,72.96
2023-10-02T17:03:57.075Z,73.14
2023-10-02T17:06:28.811Z,73.29
2023-10-02T17:09:04.073Z,73.17
2023-10-02T17:11:38.842Z,73.25
2023-10-02T17:14:12.943Z,73.57
2023-10-02T17:16:42.376Z,73.31
2023-10-02T17:19:17.975Z,73.46
2023-10-02T17:21:49.950Z,73.48
2023-10-02T17:24:20.658Z,73.56
2023-10-02T17:26:54.946Z,73.06
2023-10-02T17:29:24.336Z,73.60
2023-10-02T17:31:54.901Z,73.35
2023-10-02T17:34:28.536Z,73.86
2023-10-02T17:36:57.997Z,73.82
2023-10-02T17:39:40.423Z,73.88
2023-10-02T17:42:09.638Z,73.72
2023-10-02T17:44:41.934Z,74.00
2023-10-02T17:47:13.320Z,74.52
2023-10-02T17:49:41.932Z,74.08
2023-10-02T17:52:14.367Z,73.78
2023-10-02T17:54:43.540Z,74.07
2023-10-02T17:57:19.226Z,73.95
2023-10-02T17:59:49.228Z,74.08
2023-10-02T18:02:23.994Z,74.26
2023-10-02T18:04:55.631Z,74.50
2023-10-02T18:07:30.174Z,74.31
2023-10-02T18:10:05.260Z,74.58
2023-10-02T18:12:36.227Z,74.55
2023-10-02T18:15:09.819Z,74.46
2023-10-02T18:17:39.389Z,74.69
2023-10-02T18:20:09.129Z,74.63
2023-10-02T18:22:39.021Z,74.65
2023-10-02T18:25:11.939Z,74.99
2023-10-02T18:27:41.839Z,75.03
2023-10-02T18:30:11.542Z,75.03
2023-10-02T18:32:45.737Z,74.83
2023-10-02T18:35:20.466Z,74.97
2023-10-02T18:37:52.477Z,74.82
2023-10-02T18:40:21.142Z,74.97
2023-10-02T18:42:49.910Z,74.79
2023-10-02T18:45:18.749Z,75.13
2023-10-02T18:47:47.832Z,75.22
2023-10-02T18:50:16.799Z,75.09
2023-10-02T18:52:48.516Z,75.24
2023-10-02T18:55:20.239Z,75.54
2023-10-02T18:57:49.361Z,75.52
2023-10-02T19:00:21.874Z,75.63
2023-10-02T19:02:50.846Z,75.59
2023-10-02T19:05:19.665Z,75.75
2023-10-02T19:07:54.242Z,76.00
2023-10-02T19:10:22.981Z,75.50
2023-10-02T19:12:52.242Z,75.31
2023-10-02T19:15:20.959Z,75.43
2023-10-02T19:17:49.863Z,75.50
2023-10-02T19:20:21.422Z,75.80
2023-10-02T19:22:50.538Z,76.15
2023-10-02T19:25:20.205Z,75.84
2023-10-02T19:27:49.351Z,75.73
2023-10-02T19:30:19.070Z,75.81
2023-10-02T19:32:47.760Z,76.36
2023-10-02T19:35:17.665Z,76.18
2023-10-02T19:37:46.725Z,76.16
2023-10-02T19:40:17.604Z,76.24
2023-10-02T19:42:46.136Z,75.92
2023-10-02T19:45:15.049Z,76.14
2023-10-02T19:47:45.478Z,76.01
2023-10-02T19:50:16.433Z,76.17
2023-10-02T19:52:45.201Z,76.28
2023-10-02T19:55:13.797Z,76.06
2023-10-02T19:57:42.523Z,75.89
2023-10-02T20:00:12.664Z,76.15
2023-10-02T20:02:44.889Z,76.36
2023-10-02T20:05:17.168Z,75.95
2023-10-02T20:07:51.426Z,76.20
2023-10-02T20:10:19.988Z,76.68
2023-10-02T20:12:50.025Z,76.52
2023-10-02T20:15:21.537Z,76.87
2023-10-02T20:17:50.667Z,76.74
2023-10-02T20:20:19.749Z,76.70
2023-10-02T20:22:48.918Z,76.74
2023-10-02T20:25:18.769Z,76.50
2023-10-02T20:27:47.527Z,76.94
2023-10-02T20:30:17.373Z,76.56
2023-10-02T20:32:46.783Z,76.63
2023-10-02T20:35:17.129Z,76.61
2023-10-02T20:37:48.407Z,76.58
2023-10-02T20:40:17.126Z,77.06
2023-10-02T20:42:45.784Z,76.53
2023-10-02T20:45:14.291Z,76.96
2023-10-02T20:47:43.242Z,76.68
2023-10-02T20:50:15.284Z,76.67
2023-10-02T20:52:43.906Z,76.88
2023-10-02T20:55:13.031Z,76.66
2023-10-02T20:57:42.214Z,77.01
2023-10-02T21:00:16.545Z,76.80
2023-10-02T21:02:50.551Z,76.54
2023-10-02T21:05:19.585Z,76.69
2023-10-02T21:07:47.954Z,76.69
2023-10-02T21:10:18.819Z,76.87
2023-10-02T21:12:49.315Z,76.88
2023-10-02T21:15:18.391Z,76.61
2023-10-02T21:17:47.631Z,77.25
2023-10-02T21:20:17.236Z,77.15
2023-10-02T21:22:49.448Z,77.49
2023-10-02T21:25:20.031Z,77.35
2023-10-02T21:27:49.254Z,77.23
2023-10-02T21:30:18.147Z,77.27
2023-10-02T21:32:47.341Z,77.47
2023-10-02T21:35:16.333Z,77.29
2023-10-02T21:37:45.104Z,77.24
2023-10-02T21:40:14.376Z,77.50
2023-10-02T21:42:44.028Z,77.23
2023-10-02T21:45:13.424Z,77.21
2023-10-02T21:47:42.391Z,77.37
2023-10-02T21:50:12.927Z,77.45
2023-10-02T21:52:41.683Z,77.05
2023-10-02T21:55:15.864Z,77.46
2023-10-02T21:57:47.205Z,77.38
2023-10-02T22:00:42.566Z,77.42
2023-10-02T22:03:11.719Z,77.32
2023-10-02T22:05:40.872Z,77.24
2023-10-02T22:08:09.834Z,77.63
2023-10-02T22:10:44.651Z,77.42
2023-10-02T22:13:15.123Z,77.57
2023-10-02T22:15:44.337Z,77.77
2023-10-02T22:18:14.229Z,77.18
2023-10-02T22:20:47.001Z,77.70
2023-10-02T22:23:16.711Z,78.03
2023-10-02T22:25:46.672Z,77.98
2023-10-02T22:28:15.546Z,77.86
2023-10-02T22:30:44.607Z,77.63
2023-10-02T22:33:14.105Z,77.45
2023-10-02T22:35:43.409Z,77.58
2023-10-02T22:38:16.697Z,77.67
2023-10-02T22:40:45.531Z,77.43
2023-10-02T22:43:15.205Z,77.95
2023-10-02T22:45:45.998Z,78.00
2023-10-02T22:48:17.778Z,78.01
2023-10-02T22:50:47.304Z,77.85
2023-10-02T22:53:16.410Z,77.67
2023-10-02T22:55:49.610Z,77.84
2023-10-02T22:58:19.222Z,77.88
2023-10-02T23:00:48.456Z,78.02
2023-10-02T23:03:18.223Z,78.03
2023-10-02T23:05:47.153Z,78.02
2023-10-02T23:08:16.770Z,77.92
2023-10-02T23:10:46.317Z,78.07
2023-10-02T23:13:18.228Z,77.86
2023-10-02T23:15:48.226Z,78.06
2023-10-02T23:18:17.145Z,77.88
2023-10-02T23:20:50.041Z,78.31
2023-10-02T23:23:19.326Z,78.19
2023-10-02T23:25:48.614Z,78.11
2023-10-02T23:28:18.268Z,77.95
2023-10-02T23:30:49.469Z,78.17
2023-10-02T23:33:19.034Z,78.32
2023-10-02T23:35:48.204Z,78.30
2023-10-02T23:38:18.341Z,78.40
2023-10-02T23:40:46.996Z,78.05
2023-10-02T23:43:16.089Z,78.25
2023-10-02T23:45:46.820Z,78.57
2023-10-02T23:48:15.727Z,78.25
2023-10-02T23:50:51.707Z,78.51
2023-10-02T23:53:26.366Z,78.38
2023-10-02T23:56:01.198Z,77.90
2023-10-02T23:58:30.265Z,78.57
